createdAt,value
2023-09-03T00:02:23.327Z,0
2023-09-03T00:07:23.273Z,0
2023-09-03T00:12:23.279Z,0
2023-09-03T00:17:23.278Z,0
2023-09-03T00:22:23.283Z,0
2023-09-03T00:27:23.282Z,0
2023-09-03T00:32:23.275Z,0
2023-09-03T00:37:23.307Z,0
2023-09-03T00:42:23.259Z,0
2023-09-03T00:47:23.340Z,0
2023-09-03T00:52:23.327Z,0
2023-09-03T00:57:23.861Z,0
2023-09-03T01:02:23.318Z,0
2023-09-03T01:07:23.359Z,0
2023-09-03T01:12:23.338Z,0
2023-09-03T01:17:23.350Z,0
2023-09-03T01:22:23.314Z,0
2023-09-03T01:27:23.308Z,0
2023-09-03T01:32:23.281Z,0
2023-09-03T01:37:23.355Z,0
2023-09-03T01:42:23.323Z,0
2023-09-03T01:47:23.324Z,0
2023-09-03T01:52:23.313Z,0
2023-09-03T01:57:23.321Z,0
2023-09-03T02:02:23.593Z,0
2023-09-03T02:07:23.316Z,0
2023-09-03T02:12:23.336Z,0
2023-09-03T02:17:23.327Z,0
2023-09-03T02:22:23.309Z,0
2023-09-03T02:27:23.440Z,0
2023-09-03T02:32:23.377Z,0
2023-09-03T02:37:23.395Z,0
2023-09-03T02:42:23.316Z,0
2023-09-03T02:47:23.435Z,0
2023-09-03T02:52:23.350Z,0
2023-09-03T02:57:23.361Z,0
2023-09-03T03:02:23.376Z,0
2023-09-03T03:07:23.883Z,0
2023-09-03T03:12:23.350Z,0
2023-09-03T03:17:23.341Z,0
2023-09-03T03:22:23.371Z,0
2023-09-03T03:27:23.327Z,0
2023-09-03T03:32:23.341Z,0
2023-09-03T03:37:23.338Z,0
2023-09-03T03:42:23.345Z,0
2023-09-03T03:47:23.346Z,0
2023-09-03T03:52:23.352Z,0
2023-09-03T03:57:23.363Z,0
2023-09-03T04:02:23.402Z,0
2023-09-03T04:07:23.412Z,0
2023-09-03T04:12:23.389Z,0
2023-09-03T04:17:23.421Z,0
2023-09-03T04:22:23.649Z,0
2023-09-03T04:27:23.401Z,0
2023-09-03T04:32:23.384Z,256
2023-09-03T04:37:23.328Z,259
2023-09-03T04:42:23.398Z,264
2023-09-03T04:47:23.358Z,271
2023-09-03T04:52:23.367Z,278
2023-09-03T04:57:23.837Z,286
2023-09-03T05:02:23.394Z,293
2023-09-03T05:07:23.566Z,304
2023-09-03T05:12:23.410Z,322
2023-09-03T05:17:23.405Z,335
2023-09-03T05:22:23.361Z,352
2023-09-03T05:27:23.400Z,370
2023-09-03T05:32:23.388Z,390
2023-09-03T05:37:23.415Z,399
2023-09-03T05:42:23.374Z,424
2023-09-03T05:47:23.431Z,452
2023-09-03T05:52:23.420Z,486
2023-09-03T05:57:23.409Z,479
2023-09-03T06:02:23.402Z,481
2023-09-03T06:07:23.409Z,497
2023-09-03T06:12:23.401Z,501
2023-09-03T06:17:23.408Z,549
2023-09-03T06:22:23.403Z,559
2023-09-03T06:27:23.423Z,594
2023-09-03T06:32:23.443Z,622
2023-09-03T06:37:23.425Z,629
2023-09-03T06:42:23.424Z,672
2023-09-03T06:47:23.435Z,679
2023-09-03T06:52:23.456Z,707
2023-09-03T06:57:28.861Z,685
2023-09-03T07:02:23.423Z,751
2023-09-03T07:07:23.453Z,763
2023-09-03T07:12:23.458Z,813
2023-09-03T07:17:23.405Z,925
2023-09-03T07:22:23.407Z,850
2023-09-03T07:27:23.444Z,951
2023-09-03T07:32:23.465Z,838
2023-09-03T07:37:23.450Z,938
2023-09-03T07:42:23.446Z,957
2023-09-03T07:47:23.448Z,998
2023-09-03T07:52:23.437Z,1068
2023-09-03T07:57:23.768Z,1094
2023-09-03T08:02:23.459Z,1141
2023-09-03T08:07:23.438Z,1263
2023-09-03T08:12:23.476Z,1144
2023-09-03T08:17:23.496Z,1332
2023-09-03T08:22:23.446Z,1319
2023-09-03T08:27:23.434Z,1439
2023-09-03T08:32:23.461Z,1356
2023-09-03T08:37:23.478Z,1689
2023-09-03T08:42:23.436Z,1519
2023-09-03T08:47:23.415Z,1594
2023-09-03T08:52:23.409Z,2171
2023-09-03T08:57:23.442Z,5208
2023-09-03T09:02:23.484Z,6898
2023-09-03T09:07:23.474Z,7227
2023-09-03T09:12:23.458Z,5396
2023-09-03T09:17:23.473Z,6195
2023-09-03T09:22:24.709Z,4286
2023-09-03T09:27:23.484Z,5637
2023-09-03T09:32:23.473Z,6413
2023-09-03T09:37:23.460Z,8767
2023-09-03T09:42:23.477Z,8973
2023-09-03T09:47:23.453Z,8536
2023-09-03T09:52:24.975Z,7423
2023-09-03T09:57:23.493Z,8841
2023-09-03T10:02:23.466Z,8421
2023-09-03T10:07:23.478Z,7854
2023-09-03T10:12:23.529Z,7515
2023-09-03T10:17:23.455Z,6204
2023-09-03T10:22:23.538Z,6424
2023-09-03T10:27:23.484Z,5763
2023-09-03T10:32:23.538Z,5206
2023-09-03T10:37:23.452Z,6760
2023-09-03T10:42:23.451Z,5332
2023-09-03T10:47:23.512Z,5360
2023-09-03T10:52:23.530Z,3067
2023-09-03T10:57:23.481Z,4539
2023-09-03T11:02:23.565Z,3663
2023-09-03T11:07:23.523Z,9797
2023-09-03T11:12:23.510Z,9196
2023-09-03T11:17:23.535Z,8892
2023-09-03T11:22:23.523Z,10400
2023-09-03T11:27:23.516Z,6744
2023-09-03T11:32:23.487Z,2232
2023-09-03T11:37:23.526Z,1542
2023-09-03T11:42:23.503Z,1730
2023-09-03T11:47:23.512Z,1787
2023-09-03T11:52:23.547Z,1461
2023-09-03T11:57:23.506Z,1295
2023-09-03T12:02:23.521Z,1334
2023-09-03T12:07:23.524Z,1310
2023-09-03T12:12:23.562Z,1427
2023-09-03T12:17:23.564Z,1223
2023-09-03T12:22:23.631Z,1273
2023-09-03T12:27:23.585Z,1188
2023-09-03T12:32:23.555Z,1026
2023-09-03T12:37:23.567Z,959
2023-09-03T12:42:23.606Z,1119
2023-09-03T12:47:23.560Z,1104
2023-09-03T12:52:23.559Z,1134
2023-09-03T12:57:23.556Z,1059
2023-09-03T13:02:23.512Z,1145
2023-09-03T13:07:23.608Z,1023
2023-09-03T13:12:23.613Z,1033
2023-09-03T13:17:23.553Z,1061
2023-09-03T13:22:23.636Z,932
2023-09-03T13:27:23.569Z,1015
2023-09-03T13:32:23.567Z,904
2023-09-03T13:37:26.133Z,966
2023-09-03T13:42:23.595Z,986
2023-09-03T13:47:23.581Z,874
2023-09-03T13:52:23.661Z,902
2023-09-03T13:57:23.570Z,857
2023-09-03T14:02:23.609Z,883
2023-09-03T14:07:23.661Z,881
2023-09-03T14:12:23.633Z,959
2023-09-03T14:17:23.867Z,918
2023-09-03T14:22:23.594Z,882
2023-09-03T14:27:23.615Z,853
2023-09-03T14:32:23.669Z,804
2023-09-03T14:37:23.584Z,718
2023-09-03T14:42:23.607Z,735
2023-09-03T14:47:23.593Z,708
2023-09-03T14:52:23.819Z,764
2023-09-03T14:57:23.605Z,708
2023-09-03T15:02:23.627Z,737
2023-09-03T15:07:23.703Z,698
2023-09-03T15:12:23.604Z,627
2023-09-03T15:17:23.644Z,638
2023-09-03T15:22:23.573Z,654
2023-09-03T15:27:23.630Z,656
2023-09-03T15:32:23.702Z,661
2023-09-03T15:37:23.625Z,597
2023-09-03T15:42:23.627Z,595
2023-09-03T15:47:23.625Z,595
2023-09-03T15:52:23.603Z,565
2023-09-03T15:57:23.600Z,555
2023-09-03T16:02:23.658Z,514
2023-09-03T16:07:23.661Z,488
2023-09-03T16:12:23.913Z,496
2023-09-03T16:17:24.027Z,467
2023-09-03T16:22:23.610Z,457
2023-09-03T16:27:23.619Z,434
2023-09-03T16:32:23.652Z,399
2023-09-03T16:37:24.045Z,401
2023-09-03T16:42:23.686Z,391
2023-09-03T16:47:23.624Z,378
2023-09-03T16:52:23.803Z,386
2023-09-03T16:57:23.684Z,369
2023-09-03T17:02:23.759Z,348
2023-09-03T17:07:23.655Z,340
2023-09-03T17:12:23.625Z,337
2023-09-03T17:17:23.701Z,314
2023-09-03T17:22:23.758Z,303
2023-09-03T17:27:23.648Z,290
2023-09-03T17:32:23.680Z,284
2023-09-03T17:37:23.653Z,275
2023-09-03T17:42:23.659Z,271
2023-09-03T17:47:23.655Z,266
2023-09-03T17:52:23.646Z,259
2023-09-03T17:57:23.704Z,256
2023-09-03T18:02:23.655Z,257
2023-09-03T18:07:23.653Z,0
2023-09-03T18:12:23.691Z,0
2023-09-03T18:17:23.656Z,0
2023-09-03T18:22:23.714Z,0
2023-09-03T18:27:23.726Z,0
2023-09-03T18:32:23.745Z,0
2023-09-03T18:37:23.693Z,0
2023-09-03T18:42:23.720Z,0
2023-09-03T18:47:23.717Z,0
2023-09-03T18:52:23.699Z,0
2023-09-03T18:57:23.688Z,0
2023-09-03T19:02:23.742Z,0
2023-09-03T19:07:23.697Z,0
2023-09-03T19:12:23.683Z,0
2023-09-03T19:17:23.767Z,0
2023-09-03T19:22:23.718Z,0
2023-09-03T19:27:23.715Z,0
2023-09-03T19:32:23.746Z,0
2023-09-03T19:37:23.736Z,0
2023-09-03T19:42:23.772Z,0
2023-09-03T19:47:23.753Z,0
2023-09-03T19:52:23.778Z,0
2023-09-03T19:57:24.090Z,0
2023-09-03T20:02:23.762Z,0
2023-09-03T20:07:23.749Z,0
2023-09-03T20:12:23.765Z,0
2023-09-03T20:17:23.823Z,0
2023-09-03T20:22:23.757Z,0
2023-09-03T20:27:23.731Z,0
2023-09-03T20:32:23.741Z,0
2023-09-03T20:37:23.777Z,0
2023-09-03T20:42:24.171Z,0
2023-09-03T20:47:23.787Z,0
2023-09-03T20:52:23.716Z,0
2023-09-03T20:57:23.735Z,0
2023-09-03T21:02:23.739Z,0
2023-09-03T21:07:23.766Z,0
2023-09-03T21:12:25.641Z,0
2023-09-03T21:17:23.744Z,0
2023-09-03T21:22:23.743Z,0
2023-09-03T21:27:23.740Z,0
2023-09-03T21:32:23.778Z,0
2023-09-03T21:37:23.716Z,0
2023-09-03T21:42:23.719Z,0
2023-09-03T21:47:23.774Z,0
2023-09-03T21:52:23.748Z,0
2023-09-03T21:57:23.734Z,0
2023-09-03T22:02:23.757Z,0
2023-09-03T22:07:23.729Z,0
2023-09-03T22:12:23.771Z,0
2023-09-03T22:17:23.769Z,0
2023-09-03T22:22:23.766Z,0
2023-09-03T22:27:23.761Z,0
2023-09-03T22:32:23.787Z,0
2023-09-03T22:37:23.749Z,0
2023-09-03T22:42:23.779Z,0
2023-09-03T22:47:23.766Z,0
2023-09-03T22:52:23.777Z,0
2023-09-03T22:57:23.750Z,0
2023-09-03T23:02:24.011Z,0
2023-09-03T23:07:23.761Z,0
2023-09-03T23:12:23.746Z,0
2023-09-03T23:17:23.778Z,0
2023-09-03T23:22:23.776Z,0
2023-09-03T23:27:23.817Z,0
2023-09-03T23:32:23.799Z,0
2023-09-03T23:37:23.811Z,0
2023-09-03T23:42:23.815Z,0
2023-09-03T23:47:23.810Z,0
2023-09-03T23:52:24.009Z,0
2023-09-03T23:57:23.801Z,0
